createdAt,value
2023-04-28T00:03:07.807Z,1.45
2023-04-28T00:13:09.886Z,1.17
2023-04-28T00:23:12.873Z,1.25
2023-04-28T00:33:16.798Z,1.40
2023-04-28T00:43:21.790Z,1.06
2023-04-28T00:53:34.147Z,1.14
2023-04-28T01:03:39.813Z,1.46
2023-04-28T01:13:41.894Z,1.70
2023-04-28T01:23:46.880Z,1.76
2023-04-28T01:33:48.758Z,1.40
2023-04-28T01:43:52.544Z,1.12
2023-04-28T01:53:54.533Z,0.94
2023-04-28T02:03:56.644Z,0.82
2023-04-28T02:13:59.884Z,0.63
2023-04-28T02:24:01.801Z,0.46
2023-04-28T02:34:03.786Z,0.37
2023-04-28T02:44:06.802Z,0.55
2023-04-28T02:54:09.800Z,0.57
2023-04-28T03:04:11.889Z,0.76
2023-04-28T03:14:14.113Z,0.46
2023-04-28T03:24:16.775Z,0.57
2023-04-28T03:34:19.903Z,0.69
2023-04-28T03:44:21.942Z,0.69
2023-04-28T03:54:23.896Z,1.47
2023-04-28T04:04:32.004Z,2.08
2023-04-28T04:14:34.267Z,2.95
2023-04-28T04:24:40.010Z,3.89
2023-04-28T04:34:46.027Z,4.76
2023-04-28T04:44:48.156Z,5.55
2023-04-28T04:54:50.128Z,6.36
2023-04-28T05:04:52.243Z,6.92
2023-04-28T05:14:56.308Z,7.90
2023-04-28T05:24:58.334Z,8.53
2023-04-28T05:35:01.493Z,9.24
2023-04-28T05:45:03.513Z,10.23
2023-04-28T05:55:05.938Z,9.69
2023-04-28T06:05:08.503Z,9.66
2023-04-28T06:15:11.293Z,10.95
2023-04-28T06:25:13.341Z,10.77
2023-04-28T06:35:16.691Z,12.01
2023-04-28T06:45:18.647Z,11.89
2023-04-28T06:55:20.753Z,12.65
2023-04-28T07:05:23.760Z,13.37
2023-04-28T07:15:25.839Z,12.96
2023-04-28T07:25:27.742Z,14.71
2023-04-28T07:35:29.797Z,13.55
2023-04-28T07:45:33.249Z,13.92
2023-04-28T07:55:35.448Z,14.43
2023-04-28T08:05:39.248Z,15.25
2023-04-28T08:15:41.287Z,14.55
2023-04-28T08:25:43.357Z,15.45
2023-04-28T08:35:45.984Z,14.45
2023-04-28T08:45:48.045Z,14.37
2023-04-28T08:55:59.003Z,11.93
2023-04-28T09:06:04.066Z,13.29
2023-04-28T09:16:06.882Z,14.51
2023-04-28T09:26:09.002Z,15.11
2023-04-28T09:36:11.115Z,12.94
2023-04-28T09:46:29.699Z,11.47
2023-04-28T09:56:35.157Z,12.26
2023-04-28T10:06:38.962Z,13.73
2023-04-28T10:16:41.313Z,14.45
2023-04-28T10:27:05.962Z,13.45
2023-04-28T10:37:09.066Z,12.35
2023-04-28T10:47:11.485Z,12.41
2023-04-28T10:57:19.308Z,12.49
2023-04-28T11:07:21.276Z,12.78
2023-04-28T11:17:46.216Z,12.65
2023-04-28T11:27:48.176Z,13.59
2023-04-28T11:38:04.404Z,13.73
2023-04-28T11:48:22.681Z,13.15
2023-04-28T11:58:25.517Z,12.50
2023-04-28T12:08:30.800Z,12.95
2023-04-28T12:18:36.784Z,13.00
2023-04-28T12:28:40.575Z,12.70
2023-04-28T12:38:49.236Z,13.46
2023-04-28T12:48:51.406Z,12.35
2023-04-28T12:59:18.409Z,13.77
2023-04-28T13:09:21.168Z,12.69
2023-04-28T13:19:23.355Z,13.37
2023-04-28T13:29:40.573Z,12.59
2023-04-28T13:39:42.787Z,12.92
2023-04-28T13:49:45.174Z,13.09
2023-04-28T13:59:47.232Z,13.07
2023-04-28T14:09:50.025Z,13.00
2023-04-28T14:19:52.286Z,13.18
2023-04-28T14:29:54.262Z,13.12
2023-04-28T14:39:56.313Z,13.81
2023-04-28T14:50:20.293Z,13.67
2023-04-28T15:00:22.914Z,13.74
2023-04-28T15:10:32.350Z,13.94
2023-04-28T15:20:42.540Z,13.96
2023-04-28T15:30:44.630Z,13.85
2023-04-28T15:40:49.631Z,13.48
2023-04-28T15:50:53.697Z,13.30
2023-04-28T16:00:55.633Z,13.01
2023-04-28T16:10:57.579Z,13.01
2023-04-28T16:20:59.568Z,12.89
2023-04-28T16:31:01.451Z,12.92
2023-04-28T16:41:03.352Z,12.92
2023-04-28T16:51:32.812Z,12.81
2023-04-28T17:01:34.936Z,12.66
2023-04-28T17:11:39.849Z,12.49
2023-04-28T17:21:42.106Z,12.38
2023-04-28T17:31:44.071Z,12.27
2023-04-28T17:41:47.074Z,11.87
2023-04-28T17:51:49.016Z,11.59
2023-04-28T18:01:56.453Z,11.21
2023-04-28T18:12:04.803Z,10.93
2023-04-28T18:22:06.876Z,10.75
2023-04-28T18:32:12.745Z,10.41
2023-04-28T18:42:16.770Z,10.04
2023-04-28T18:52:19.463Z,10.07
2023-04-28T19:02:30.231Z,10.08
2023-04-28T19:12:38.950Z,9.81
2023-04-28T19:22:44.868Z,9.66
2023-04-28T19:32:47.052Z,9.52
2023-04-28T19:42:49.786Z,9.30
2023-04-28T19:53:05.981Z,9.23
2023-04-28T20:03:15.491Z,9.20
2023-04-28T20:13:25.697Z,9.00
2023-04-28T20:23:29.612Z,8.97
2023-04-28T20:33:32.761Z,8.82
2023-04-28T20:43:34.932Z,8.78
2023-04-28T20:53:39.920Z,8.61
2023-04-28T21:03:42.106Z,8.46
2023-04-28T21:13:44.770Z,8.36
2023-04-28T21:23:46.731Z,8.21
2023-04-28T21:33:48.762Z,8.04
2023-04-28T21:43:50.744Z,7.98
2023-04-28T21:53:53.772Z,7.85
2023-04-28T22:03:56.392Z,7.79
2023-04-28T22:13:59.437Z,7.66
2023-04-28T22:24:02.318Z,7.57
2023-04-28T22:34:06.076Z,7.52
2023-04-28T22:44:07.994Z,7.49
2023-04-28T22:54:10.060Z,7.36
2023-04-28T23:04:12.124Z,7.56
2023-04-28T23:14:14.155Z,7.55
2023-04-28T23:24:22.998Z,7.54
2023-04-28T23:34:25.582Z,7.47
2023-04-28T23:44:27.519Z,7.23
2023-04-28T23:54:30.981Z,7.12
